sensor_id;sensor_type;location;lat;lon;timestamp;pressure;altitude;pressure_sealevel;temperature;humidity
77161;BME280;66135;0.000;0.000;2023-08-06T00:01:12;100235.41;;;21.95;68.71
77161;BME280;66135;0.000;0.000;2023-08-06T00:03:37;100232.88;;;21.93;68.78
77161;BME280;66135;0.000;0.000;2023-08-06T00:06:05;100233.72;;;21.94;68.74
77161;BME280;66135;0.000;0.000;2023-08-06T00:08:30;100238.94;;;21.95;68.93
77161;BME280;66135;0.000;0.000;2023-08-06T00:10:55;100238.13;;;21.95;68.78
77161;BME280;66135;0.000;0.000;2023-08-06T00:13:21;100234.56;;;21.94;68.79
77161;BME280;66135;0.000;0.000;2023-08-06T00:15:46;100233.72;;;21.94;68.48
77161;BME280;66135;0.000;0.000;2023-08-06T00:18:12;100235.59;;;21.93;68.90
77161;BME280;66135;0.000;0.000;2023-08-06T00:20:40;100235.00;;;21.91;68.63
77161;BME280;66135;0.000;0.000;2023-08-06T00:23:07;100225.97;;;21.91;68.58
77161;BME280;66135;0.000;0.000;2023-08-06T00:25:32;100223.25;;;21.91;68.63
77161;BME280;66135;0.000;0.000;2023-08-06T00:27:57;100235.59;;;21.93;68.61
77161;BME280;66135;0.000;0.000;2023-08-06T00:30:23;100220.28;;;21.92;68.52
77161;BME280;66135;0.000;0.000;2023-08-06T00:32:48;100229.31;;;21.93;68.61
77161;BME280;66135;0.000;0.000;2023-08-06T00:35:14;100227.41;;;21.93;68.34
77161;BME280;66135;0.000;0.000;2023-08-06T00:37:39;100221.97;;;21.93;68.71
77161;BME280;66135;0.000;0.000;2023-08-06T00:40:06;100223.88;;;21.93;68.52
77161;BME280;66135;0.000;0.000;2023-08-06T00:42:32;100224.28;;;21.90;68.54
77161;BME280;66135;0.000;0.000;2023-08-06T00:44:57;100221.53;;;21.90;68.74
77161;BME280;66135;0.000;0.000;2023-08-06T00:47:23;100221.53;;;21.90;68.58
77161;BME280;66135;0.000;0.000;2023-08-06T00:49:49;100215.06;;;21.91;68.63
77161;BME280;66135;0.000;0.000;2023-08-06T00:52:14;100216.09;;;21.90;68.66
77161;BME280;66135;0.000;0.000;2023-08-06T00:54:40;100219.88;;;21.89;68.91
77161;BME280;66135;0.000;0.000;2023-08-06T00:57:07;100213.19;;;21.91;68.44
77161;BME280;66135;0.000;0.000;2023-08-06T00:59:34;100221.53;;;21.90;68.45
77161;BME280;66135;0.000;0.000;2023-08-06T01:01:59;100210.63;;;21.90;68.42
77161;BME280;66135;0.000;0.000;2023-08-06T01:04:25;100211.69;;;21.89;68.59
77161;BME280;66135;0.000;0.000;2023-08-06T01:17:17;100208.13;;;21.88;68.74
77161;BME280;66135;0.000;0.000;2023-08-06T01:19:43;100216.31;;;21.88;68.55
77161;BME280;66135;0.000;0.000;2023-08-06T01:22:08;100212.97;;;21.86;68.38
77161;BME280;66135;0.000;0.000;2023-08-06T01:24:34;100212.16;;;21.86;68.66
77161;BME280;66135;0.000;0.000;2023-08-06T01:27:13;100210.66;;;21.83;68.67
77161;BME280;66135;0.000;0.000;2023-08-06T01:29:49;100202.28;;;21.85;68.57
77161;BME280;66135;0.000;0.000;2023-08-06T01:32:20;100206.69;;;21.86;68.54
77161;BME280;66135;0.000;0.000;2023-08-06T01:34:47;100202.28;;;21.85;68.44
77161;BME280;66135;0.000;0.000;2023-08-06T01:37:14;100201.22;;;21.86;68.71
77161;BME280;66135;0.000;0.000;2023-08-06T01:39:42;100205.00;;;21.85;68.42
77161;BME280;66135;0.000;0.000;2023-08-06T01:42:08;100202.28;;;21.85;68.61
77161;BME280;66135;0.000;0.000;2023-08-06T01:44:33;100207.09;;;21.83;68.38
77161;BME280;66135;0.000;0.000;2023-08-06T01:46:59;100207.94;;;21.83;68.33
77161;BME280;66135;0.000;0.000;2023-08-06T01:49:24;100201.44;;;21.84;68.64
77161;BME280;66135;0.000;0.000;2023-08-06T01:51:49;100206.91;;;21.84;68.21
77161;BME280;66135;0.000;0.000;2023-08-06T01:54:15;100202.50;;;21.83;68.32
77161;BME280;66135;0.000;0.000;2023-08-06T01:56:40;100204.38;;;21.83;68.55
77161;BME280;66135;0.000;0.000;2023-08-06T01:59:06;100205.00;;;21.85;68.27
77161;BME280;66135;0.000;0.000;2023-08-06T02:01:31;100201.84;;;21.81;68.34
77161;BME280;66135;0.000;0.000;2023-08-06T02:03:56;100201.84;;;21.81;68.47
77161;BME280;66135;0.000;0.000;2023-08-06T02:06:22;100201.84;;;21.81;68.24
77161;BME280;66135;0.000;0.000;2023-08-06T02:08:47;100201.03;;;21.81;68.22
77161;BME280;66135;0.000;0.000;2023-08-06T02:11:13;100198.31;;;21.81;68.45
77161;BME280;66135;0.000;0.000;2023-08-06T02:13:38;100210.88;;;21.82;68.38
77161;BME280;66135;0.000;0.000;2023-08-06T02:16:07;100195.59;;;21.81;68.32
77161;BME280;66135;0.000;0.000;2023-08-06T02:18:32;100200.19;;;21.80;68.10
77161;BME280;66135;0.000;0.000;2023-08-06T02:20:58;100206.69;;;21.79;68.50
77161;BME280;66135;0.000;0.000;2023-08-06T02:23:25;100202.91;;;21.80;68.40
77161;BME280;66135;0.000;0.000;2023-08-06T02:26:01;100198.50;;;21.79;68.37
77161;BME280;66135;0.000;0.000;2023-08-06T02:28:27;100204.81;;;21.80;68.28
77161;BME280;66135;0.000;0.000;2023-08-06T02:30:52;100199.56;;;21.78;68.23
77161;BME280;66135;0.000;0.000;2023-08-06T02:33:18;100199.56;;;21.78;68.12
77161;BME280;66135;0.000;0.000;2023-08-06T02:35:43;100194.13;;;21.78;67.91
77161;BME280;66135;0.000;0.000;2023-08-06T02:38:09;100195.78;;;21.79;68.37
77161;BME280;66135;0.000;0.000;2023-08-06T02:40:34;100196.00;;;21.78;68.16
77161;BME280;66135;0.000;0.000;2023-08-06T02:42:59;100185.50;;;21.75;68.39
77161;BME280;66135;0.000;0.000;2023-08-06T02:45:25;100196.41;;;21.75;68.19
77161;BME280;66135;0.000;0.000;2023-08-06T02:47:50;100193.47;;;21.76;68.23
77161;BME280;66135;0.000;0.000;2023-08-06T02:50:15;100188.00;;;21.76;68.06
77161;BME280;66135;0.000;0.000;2023-08-06T02:52:41;100191.56;;;21.77;68.09
77161;BME280;66135;0.000;0.000;2023-08-06T02:55:07;100191.38;;;21.78;67.78
77161;BME280;66135;0.000;0.000;2023-08-06T02:57:32;100180.88;;;21.75;68.19
77161;BME280;66135;0.000;0.000;2023-08-06T02:59:57;100176.28;;;21.76;68.08
77161;BME280;66135;0.000;0.000;2023-08-06T03:02:23;100183.84;;;21.74;68.20
77161;BME280;66135;0.000;0.000;2023-08-06T03:04:48;100181.91;;;21.74;68.18
77161;BME280;66135;0.000;0.000;2023-08-06T03:07:14;100177.53;;;21.73;68.25
77161;BME280;66135;0.000;0.000;2023-08-06T03:09:39;100172.53;;;21.70;68.64
77161;BME280;66135;0.000;0.000;2023-08-06T03:12:05;100179.41;;;21.73;68.34
77161;BME280;66135;0.000;0.000;2023-08-06T03:14:30;100177.53;;;21.73;68.02
77161;BME280;66135;0.000;0.000;2023-08-06T03:16:56;100175.88;;;21.72;67.96
77161;BME280;66135;0.000;0.000;2023-08-06T03:19:21;100176.06;;;21.71;68.36
77161;BME280;66135;0.000;0.000;2023-08-06T03:21:46;100179.63;;;21.71;68.31
77161;BME280;66135;0.000;0.000;2023-08-06T03:24:13;100188.66;;;21.72;68.23
77161;BME280;66135;0.000;0.000;2023-08-06T03:26:38;100183.22;;;21.72;68.25
77161;BME280;66135;0.000;0.000;2023-08-06T03:29:04;100187.81;;;21.71;68.19
77161;BME280;66135;0.000;0.000;2023-08-06T03:31:29;100185.94;;;21.72;68.30
77161;BME280;66135;0.000;0.000;2023-08-06T03:33:54;100186.78;;;21.72;67.98
77161;BME280;66135;0.000;0.000;2023-08-06T03:36:20;100185.09;;;21.71;68.29
77161;BME280;66135;0.000;0.000;2023-08-06T03:38:45;100185.53;;;21.68;68.22
77161;BME280;66135;0.000;0.000;2023-08-06T03:41:11;100183.66;;;21.69;68.28
77161;BME280;66135;0.000;0.000;2023-08-06T03:43:36;100184.47;;;21.69;68.21
77161;BME280;66135;0.000;0.000;2023-08-06T03:46:02;100189.09;;;21.69;68.15
77161;BME280;66135;0.000;0.000;2023-08-06T03:48:27;100188.25;;;21.68;68.24
77161;BME280;66135;0.000;0.000;2023-08-06T03:50:52;100192.84;;;21.68;67.98
77161;BME280;66135;0.000;0.000;2023-08-06T03:53:18;100195.56;;;21.68;68.21
77161;BME280;66135;0.000;0.000;2023-08-06T03:55:43;100197.28;;;21.69;68.20
77161;BME280;66135;0.000;0.000;2023-08-06T03:58:08;100197.28;;;21.69;68.07
77161;BME280;66135;0.000;0.000;2023-08-06T04:00:34;100193.91;;;21.67;68.34
77161;BME280;66135;0.000;0.000;2023-08-06T04:02:59;100196.44;;;21.68;68.16
77161;BME280;66135;0.000;0.000;2023-08-06T04:05:24;100198.31;;;21.68;68.11
77161;BME280;66135;0.000;0.000;2023-08-06T04:07:50;100203.75;;;21.68;68.30
77161;BME280;66135;0.000;0.000;2023-08-06T04:10:15;100196.88;;;21.65;68.39
77161;BME280;66135;0.000;0.000;2023-08-06T04:12:41;100201.25;;;21.66;68.16
77161;BME280;66135;0.000;0.000;2023-08-06T04:15:07;100200.41;;;21.66;68.30
77161;BME280;66135;0.000;0.000;2023-08-06T04:17:32;100201.25;;;21.66;68.43
77161;BME280;66135;0.000;0.000;2023-08-06T04:19:58;100202.31;;;21.65;68.30
77161;BME280;66135;0.000;0.000;2023-08-06T04:22:24;100208.56;;;21.66;68.30
77161;BME280;66135;0.000;0.000;2023-08-06T04:24:49;100206.91;;;21.65;68.12
77161;BME280;66135;0.000;0.000;2023-08-06T04:27:15;100212.38;;;21.65;68.18
77161;BME280;66135;0.000;0.000;2023-08-06T04:29:41;100209.66;;;21.65;68.23
77161;BME280;66135;0.000;0.000;2023-08-06T04:32:08;100211.53;;;21.64;68.23
77161;BME280;66135;0.000;0.000;2023-08-06T04:34:35;100211.53;;;21.64;68.04
77161;BME280;66135;0.000;0.000;2023-08-06T04:37:01;100220.56;;;21.65;68.07
77161;BME280;66135;0.000;0.000;2023-08-06T04:39:27;100220.56;;;21.65;68.03
77161;BME280;66135;0.000;0.000;2023-08-06T04:41:52;100219.69;;;21.64;68.17
77161;BME280;66135;0.000;0.000;2023-08-06T04:44:18;100222.66;;;21.63;68.06
77161;BME280;66135;0.000;0.000;2023-08-06T04:46:43;100224.31;;;21.64;68.18
77161;BME280;66135;0.000;0.000;2023-08-06T04:49:09;100223.72;;;21.62;68.34
77161;BME280;66135;0.000;0.000;2023-08-06T04:51:34;100223.88;;;21.60;68.42
77161;BME280;66135;0.000;0.000;2023-08-06T04:54:00;100234.78;;;21.60;68.14
77161;BME280;66135;0.000;0.000;2023-08-06T04:56:25;100237.53;;;21.60;68.27
77161;BME280;66135;0.000;0.000;2023-08-06T04:58:51;100229.56;;;21.59;68.22
77161;BME280;66135;0.000;0.000;2023-08-06T05:01:16;100235.22;;;21.57;68.41
77161;BME280;66135;0.000;0.000;2023-08-06T05:03:42;100240.25;;;21.60;68.36
77161;BME280;66135;0.000;0.000;2023-08-06T05:06:08;100240.06;;;21.62;68.73
77161;BME280;66135;0.000;0.000;2023-08-06T05:08:33;100243.19;;;21.65;68.29
77161;BME280;66135;0.000;0.000;2023-08-06T05:10:58;100245.31;;;21.63;68.21
77161;BME280;66135;0.000;0.000;2023-08-06T05:13:24;100243.59;;;21.62;68.25
77161;BME280;66135;0.000;0.000;2023-08-06T05:15:50;100252.22;;;21.59;68.33
77161;BME280;66135;0.000;0.000;2023-08-06T05:18:16;100243.19;;;21.59;68.21
77161;BME280;66135;0.000;0.000;2023-08-06T05:20:42;100248.22;;;21.55;68.04
77161;BME280;66135;0.000;0.000;2023-08-06T05:23:08;100251.78;;;21.56;67.85
77161;BME280;66135;0.000;0.000;2023-08-06T05:25:37;100254.75;;;21.54;67.61
77161;BME280;66135;0.000;0.000;2023-08-06T05:28:03;100262.06;;;21.54;67.56
77161;BME280;66135;0.000;0.000;2023-08-06T05:30:28;100249.72;;;21.51;67.89
77161;BME280;66135;0.000;0.000;2023-08-06T05:32:54;100254.09;;;21.52;67.97
77161;BME280;66135;0.000;0.000;2023-08-06T05:35:20;100259.56;;;21.52;68.20
77161;BME280;66135;0.000;0.000;2023-08-06T05:37:46;100266.50;;;21.55;68.17
77161;BME280;66135;0.000;0.000;2023-08-06T05:40:11;100274.84;;;21.53;68.07
77161;BME280;66135;0.000;0.000;2023-08-06T05:42:36;100279.28;;;21.54;68.17
77161;BME280;66135;0.000;0.000;2023-08-06T05:45:02;100277.38;;;21.55;68.05
77161;BME280;66135;0.000;0.000;2023-08-06T05:47:27;100281.16;;;21.54;68.14
77161;BME280;66135;0.000;0.000;2023-08-06T05:49:53;100288.06;;;21.56;67.98
77161;BME280;66135;0.000;0.000;2023-08-06T05:52:18;100288.06;;;21.56;68.17
77161;BME280;66135;0.000;0.000;2023-08-06T05:54:44;100286.59;;;21.54;67.94
77161;BME280;66135;0.000;0.000;2023-08-06T05:57:09;100286.59;;;21.54;67.92
77161;BME280;66135;0.000;0.000;2023-08-06T05:59:34;100292.06;;;21.54;67.86
77161;BME280;66135;0.000;0.000;2023-08-06T06:02:00;100301.28;;;21.53;67.68
77161;BME280;66135;0.000;0.000;2023-08-06T06:04:25;100298.56;;;21.53;67.69
77161;BME280;66135;0.000;0.000;2023-08-06T06:06:51;100304.00;;;21.53;67.66
77161;BME280;66135;0.000;0.000;2023-08-06T06:09:16;100307.13;;;21.50;67.92
77161;BME280;66135;0.000;0.000;2023-08-06T06:11:41;100304.41;;;21.50;67.62
77161;BME280;66135;0.000;0.000;2023-08-06T06:14:07;100309.47;;;21.53;67.80
77161;BME280;66135;0.000;0.000;2023-08-06T06:16:33;100320.38;;;21.53;68.00
77161;BME280;66135;0.000;0.000;2023-08-06T06:18:58;100323.09;;;21.53;67.68
77161;BME280;66135;0.000;0.000;2023-08-06T06:21:24;100324.75;;;21.54;67.61
77161;BME280;66135;0.000;0.000;2023-08-06T06:23:49;100330.41;;;21.52;67.65
77161;BME280;66135;0.000;0.000;2023-08-06T06:26:17;100332.50;;;21.50;68.12
77161;BME280;66135;0.000;0.000;2023-08-06T06:28:43;100333.56;;;21.49;67.94
77161;BME280;66135;0.000;0.000;2023-08-06T06:31:08;100339.84;;;21.50;67.93
77161;BME280;66135;0.000;0.000;2023-08-06T06:33:34;100350.94;;;21.48;68.20
77161;BME280;66135;0.000;0.000;2023-08-06T06:36:00;100357.47;;;21.47;68.15
77161;BME280;66135;0.000;0.000;2023-08-06T06:38:25;100360.41;;;21.46;68.23
77161;BME280;66135;0.000;0.000;2023-08-06T06:40:57;100356.63;;;21.47;68.15
77161;BME280;66135;0.000;0.000;2023-08-06T06:43:23;100368.56;;;21.46;67.80
77161;BME280;66135;0.000;0.000;2023-08-06T06:45:58;100366.88;;;21.45;67.78
77161;BME280;66135;0.000;0.000;2023-08-06T06:48:28;100363.34;;;21.44;67.99
77161;BME280;66135;0.000;0.000;2023-08-06T06:50:54;100370.44;;;21.45;67.78
77161;BME280;66135;0.000;0.000;2023-08-06T06:53:20;100365.84;;;21.46;67.77
77161;BME280;66135;0.000;0.000;2023-08-06T06:55:45;100366.28;;;21.43;68.08
77161;BME280;66135;0.000;0.000;2023-08-06T06:58:14;100380.72;;;21.43;67.86
77161;BME280;66135;0.000;0.000;2023-08-06T07:00:40;100390.16;;;21.41;67.82
77161;BME280;66135;0.000;0.000;2023-08-06T07:03:05;100395.63;;;21.41;68.00
77161;BME280;66135;0.000;0.000;2023-08-06T07:05:30;100389.31;;;21.40;67.93
77161;BME280;66135;0.000;0.000;2023-08-06T07:07:56;100400.22;;;21.40;67.74
77161;BME280;66135;0.000;0.000;2023-08-06T07:10:22;100394.97;;;21.39;67.78
77161;BME280;66135;0.000;0.000;2023-08-06T07:12:47;100404.00;;;21.39;67.85
77161;BME280;66135;0.000;0.000;2023-08-06T07:15:12;100399.38;;;21.40;67.76
77161;BME280;66135;0.000;0.000;2023-08-06T07:17:38;100403.16;;;21.39;67.85
77161;BME280;66135;0.000;0.000;2023-08-06T07:20:04;100405.03;;;21.38;67.63
77161;BME280;66135;0.000;0.000;2023-08-06T07:22:31;100411.53;;;21.37;67.70
77161;BME280;66135;0.000;0.000;2023-08-06T07:24:56;100416.13;;;21.37;67.65
77161;BME280;66135;0.000;0.000;2023-08-06T07:27:22;100428.09;;;21.36;67.92
77161;BME280;66135;0.000;0.000;2023-08-06T07:29:47;100430.81;;;21.36;67.77
77161;BME280;66135;0.000;0.000;2023-08-06T07:32:13;100433.53;;;21.36;67.71
77161;BME280;66135;0.000;0.000;2023-08-06T07:34:39;100454.72;;;21.34;67.60
77161;BME280;66135;0.000;0.000;2023-08-06T07:37:04;100449.06;;;21.35;67.52
77161;BME280;66135;0.000;0.000;2023-08-06T07:39:31;100450.28;;;21.33;67.61
77161;BME280;66135;0.000;0.000;2023-08-06T07:41:56;100454.72;;;21.34;67.45
77161;BME280;66135;0.000;0.000;2023-08-06T07:44:21;100466.44;;;21.34;67.63
77161;BME280;66135;0.000;0.000;2023-08-06T07:46:47;100463.69;;;21.34;67.64
77161;BME280;66135;0.000;0.000;2023-08-06T07:49:12;100463.09;;;21.32;67.53
77161;BME280;66135;0.000;0.000;2023-08-06T07:51:38;100470.41;;;21.32;67.60
77161;BME280;66135;0.000;0.000;2023-08-06T07:54:03;100471.06;;;21.34;67.43
77161;BME280;66135;0.000;0.000;2023-08-06T07:56:29;100472.72;;;21.35;67.48
77161;BME280;66135;0.000;0.000;2023-08-06T07:58:54;100471.88;;;21.34;67.68
77161;BME280;66135;0.000;0.000;2023-08-06T08:01:19;100469.34;;;21.33;67.57
77161;BME280;66135;0.000;0.000;2023-08-06T08:03:45;100483.19;;;21.31;67.61
77161;BME280;66135;0.000;0.000;2023-08-06T08:06:10;100483.19;;;21.31;67.78
77161;BME280;66135;0.000;0.000;2023-08-06T08:08:36;100474.16;;;21.31;67.78
77161;BME280;66135;0.000;0.000;2023-08-06T08:11:03;100489.50;;;21.32;67.91
77161;BME280;66135;0.000;0.000;2023-08-06T08:13:29;100485.72;;;21.33;67.94
77161;BME280;66135;0.000;0.000;2023-08-06T08:15:58;100485.91;;;21.31;68.00
77161;BME280;66135;0.000;0.000;2023-08-06T08:18:24;100487.78;;;21.31;67.74
77161;BME280;66135;0.000;0.000;2023-08-06T08:20:50;100485.91;;;21.31;68.08
77161;BME280;66135;0.000;0.000;2023-08-06T08:23:16;100487.19;;;21.29;67.71
77161;BME280;66135;0.000;0.000;2023-08-06T08:25:41;100494.09;;;21.31;68.06
77161;BME280;66135;0.000;0.000;2023-08-06T08:28:07;100490.72;;;21.29;67.88
77161;BME280;66135;0.000;0.000;2023-08-06T08:30:33;100504.13;;;21.31;68.10
77161;BME280;66135;0.000;0.000;2023-08-06T08:32:58;100498.69;;;21.31;67.99
77161;BME280;66135;0.000;0.000;2023-08-06T08:35:23;100508.78;;;21.30;68.11
77161;BME280;66135;0.000;0.000;2023-08-06T08:37:49;100494.28;;;21.30;68.15
77161;BME280;66135;0.000;0.000;2023-08-06T08:40:15;100497.66;;;21.32;68.07
77161;BME280;66135;0.000;0.000;2023-08-06T08:42:41;100495.97;;;21.31;68.47
77161;BME280;66135;0.000;0.000;2023-08-06T08:45:15;100505.19;;;21.30;68.35
77161;BME280;66135;0.000;0.000;2023-08-06T08:47:41;100516.09;;;21.30;68.48
77161;BME280;66135;0.000;0.000;2023-08-06T08:50:08;100520.06;;;21.27;68.80
77161;BME280;66135;0.000;0.000;2023-08-06T08:52:36;100518.81;;;21.30;68.83
77161;BME280;66135;0.000;0.000;2023-08-06T08:55:03;100518.81;;;21.30;68.42
77161;BME280;66135;0.000;0.000;2023-08-06T08:57:29;100524.91;;;21.32;68.75
77161;BME280;66135;0.000;0.000;2023-08-06T08:59:54;100523.03;;;21.32;69.05
77161;BME280;66135;0.000;0.000;2023-08-06T09:02:21;100527.44;;;21.33;68.92
77161;BME280;66135;0.000;0.000;2023-08-06T09:04:48;100537.28;;;21.34;69.06
77161;BME280;66135;0.000;0.000;2023-08-06T09:07:18;100541.69;;;21.35;68.92
77161;BME280;66135;0.000;0.000;2023-08-06T09:09:47;100545.44;;;21.34;69.00
77161;BME280;66135;0.000;0.000;2023-08-06T09:12:17;100545.28;;;21.36;69.01
77161;BME280;66135;0.000;0.000;2023-08-06T09:14:43;100550.72;;;21.36;69.21
77161;BME280;66135;0.000;0.000;2023-08-06T09:17:08;100552.59;;;21.35;69.30
77161;BME280;66135;0.000;0.000;2023-08-06T09:19:36;100552.81;;;21.34;69.32
77161;BME280;66135;0.000;0.000;2023-08-06T09:22:01;100563.69;;;21.34;69.10
77161;BME280;66135;0.000;0.000;2023-08-06T09:24:27;100556.75;;;21.31;69.14
77161;BME280;66135;0.000;0.000;2023-08-06T09:26:53;100561.56;;;21.29;69.11
77161;BME280;66135;0.000;0.000;2023-08-06T09:29:19;100568.91;;;21.29;68.95
77161;BME280;66135;0.000;0.000;2023-08-06T09:31:47;100578.13;;;21.27;69.16
77161;BME280;66135;0.000;0.000;2023-08-06T09:34:16;100588.00;;;21.29;69.00
77161;BME280;66135;0.000;0.000;2023-08-06T09:36:43;100580.00;;;21.27;68.98
77161;BME280;66135;0.000;0.000;2023-08-06T09:39:19;100586.09;;;21.29;69.10
77161;BME280;66135;0.000;0.000;2023-08-06T09:41:45;100584.22;;;21.30;69.10
77161;BME280;66135;0.000;0.000;2023-08-06T09:44:22;100593.03;;;21.32;69.09
77161;BME280;66135;0.000;0.000;2023-08-06T09:46:55;100594.69;;;21.33;68.87
77161;BME280;66135;0.000;0.000;2023-08-06T09:49:25;100602.06;;;21.32;68.82
77161;BME280;66135;0.000;0.000;2023-08-06T09:51:51;100598.88;;;21.29;69.13
77161;BME280;66135;0.000;0.000;2023-08-06T09:54:17;100607.06;;;21.29;69.09
77161;BME280;66135;0.000;0.000;2023-08-06T09:56:44;100609.59;;;21.30;69.04
77161;BME280;66135;0.000;0.000;2023-08-06T09:59:09;100607.50;;;21.32;69.27
77161;BME280;66135;0.000;0.000;2023-08-06T10:01:37;100614.63;;;21.33;69.18
77161;BME280;66135;0.000;0.000;2023-08-06T10:04:03;100614.63;;;21.33;69.09
77161;BME280;66135;0.000;0.000;2023-08-06T10:06:33;100620.28;;;21.32;69.22
77161;BME280;66135;0.000;0.000;2023-08-06T10:08:59;100612.75;;;21.34;69.05
77161;BME280;66135;0.000;0.000;2023-08-06T10:11:24;100619.00;;;21.34;68.93
77161;BME280;66135;0.000;0.000;2023-08-06T10:13:55;100619.88;;;21.35;69.33
77161;BME280;66135;0.000;0.000;2023-08-06T10:16:23;100624.28;;;21.36;69.04
77161;BME280;66135;0.000;0.000;2023-08-06T10:18:50;100625.31;;;21.35;69.29
77161;BME280;66135;0.000;0.000;2023-08-06T10:21:16;100631.81;;;21.34;69.16
77161;BME280;66135;0.000;0.000;2023-08-06T10:23:41;100625.31;;;21.35;69.55
77161;BME280;66135;0.000;0.000;2023-08-06T10:26:07;100629.09;;;21.34;69.28
77161;BME280;66135;0.000;0.000;2023-08-06T10:28:37;100625.31;;;21.35;69.22
77161;BME280;66135;0.000;0.000;2023-08-06T10:31:03;100632.47;;;21.36;69.38
77161;BME280;66135;0.000;0.000;2023-08-06T10:33:44;100631.41;;;21.37;69.46
77161;BME280;66135;0.000;0.000;2023-08-06T10:36:10;100627.84;;;21.36;69.29
77161;BME280;66135;0.000;0.000;2023-08-06T10:38:48;100628.03;;;21.35;69.39
77161;BME280;66135;0.000;0.000;2023-08-06T10:41:26;100625.31;;;21.35;69.37
77161;BME280;66135;0.000;0.000;2023-08-06T10:44:05;100629.91;;;21.34;69.46
77161;BME280;66135;0.000;0.000;2023-08-06T10:46:31;100617.56;;;21.32;69.40
77161;BME280;66135;0.000;0.000;2023-08-06T10:48:56;100629.91;;;21.34;69.56
77161;BME280;66135;0.000;0.000;2023-08-06T10:51:22;100626.38;;;21.34;69.69
77161;BME280;66135;0.000;0.000;2023-08-06T10:53:48;100638.28;;;21.33;69.79
77161;BME280;66135;0.000;0.000;2023-08-06T10:58:45;100635.78;;;21.31;69.81
77161;BME280;66135;0.000;0.000;2023-08-06T11:01:11;100642.47;;;21.29;69.60
77161;BME280;66135;0.000;0.000;2023-08-06T11:03:37;100648.75;;;21.29;69.79
77161;BME280;66135;0.000;0.000;2023-08-06T11:06:03;100643.31;;;21.29;69.83
77161;BME280;66135;0.000;0.000;2023-08-06T11:08:33;100651.69;;;21.27;69.94
77161;BME280;66135;0.000;0.000;2023-08-06T11:11:13;100643.50;;;21.27;69.98
77161;BME280;66135;0.000;0.000;2023-08-06T11:13:42;100650.84;;;21.27;70.05
77161;BME280;66135;0.000;0.000;2023-08-06T11:16:09;100649.59;;;21.30;69.86
77161;BME280;66135;0.000;0.000;2023-08-06T11:18:35;100652.31;;;21.30;70.22
77161;BME280;66135;0.000;0.000;2023-08-06T11:21:00;100647.72;;;21.30;70.35
77161;BME280;66135;0.000;0.000;2023-08-06T11:23:27;100649.59;;;21.30;70.28
77161;BME280;66135;0.000;0.000;2023-08-06T11:25:54;100653.19;;;21.30;70.10
77161;BME280;66135;0.000;0.000;2023-08-06T11:28:19;100658.41;;;21.32;69.98
77161;BME280;66135;0.000;0.000;2023-08-06T11:30:47;100658.41;;;21.32;70.09
77161;BME280;66135;0.000;0.000;2023-08-06T11:33:12;100660.50;;;21.30;69.72
77161;BME280;66135;0.000;0.000;2023-08-06T11:35:38;100653.19;;;21.30;70.17
77161;BME280;66135;0.000;0.000;2023-08-06T11:38:05;100653.19;;;21.30;69.94
77161;BME280;66135;0.000;0.000;2023-08-06T11:40:31;100656.94;;;21.29;70.25
77161;BME280;66135;0.000;0.000;2023-08-06T11:42:57;100656.09;;;21.29;70.22
77161;BME280;66135;0.000;0.000;2023-08-06T11:45:24;100657.78;;;21.30;70.24
77161;BME280;66135;0.000;0.000;2023-08-06T11:47:50;100663.22;;;21.30;70.31
77161;BME280;66135;0.000;0.000;2023-08-06T11:50:25;100658.63;;;21.30;70.23
77161;BME280;66135;0.000;0.000;2023-08-06T11:52:56;100654.19;;;21.29;70.17
77161;BME280;66135;0.000;0.000;2023-08-06T11:55:24;100661.56;;;21.29;70.19
77161;BME280;66135;0.000;0.000;2023-08-06T11:57:49;100667.81;;;21.29;70.08
77161;BME280;66135;0.000;0.000;2023-08-06T12:00:15;100664.28;;;21.29;70.13
77161;BME280;66135;0.000;0.000;2023-08-06T12:02:44;100668.88;;;21.28;70.28
77161;BME280;66135;0.000;0.000;2023-08-06T12:05:14;100667.00;;;21.29;70.22
77161;BME280;66135;0.000;0.000;2023-08-06T12:08:01;100669.72;;;21.29;70.07
77161;BME280;66135;0.000;0.000;2023-08-06T12:10:29;100668.69;;;21.30;70.26
77161;BME280;66135;0.000;0.000;2023-08-06T12:12:55;100671.41;;;21.30;70.13
77161;BME280;66135;0.000;0.000;2023-08-06T12:15:22;100676.00;;;21.29;70.37
77161;BME280;66135;0.000;0.000;2023-08-06T12:17:48;100675.19;;;21.29;70.25
77161;BME280;66135;0.000;0.000;2023-08-06T12:20:13;100678.94;;;21.27;70.26
77161;BME280;66135;0.000;0.000;2023-08-06T12:22:38;100685.22;;;21.28;70.35
77161;BME280;66135;0.000;0.000;2023-08-06T12:25:09;100687.09;;;21.27;70.17
77161;BME280;66135;0.000;0.000;2023-08-06T12:27:41;100696.13;;;21.28;70.05
77161;BME280;66135;0.000;0.000;2023-08-06T12:30:08;100691.69;;;21.27;70.25
77161;BME280;66135;0.000;0.000;2023-08-06T12:32:34;100686.25;;;21.27;70.35
77161;BME280;66135;0.000;0.000;2023-08-06T12:35:00;100693.41;;;21.28;70.17
77161;BME280;66135;0.000;0.000;2023-08-06T12:37:26;100694.25;;;21.29;70.02
77161;BME280;66135;0.000;0.000;2023-08-06T12:39:51;100699.06;;;21.27;70.32
77161;BME280;66135;0.000;0.000;2023-08-06T12:42:17;100699.69;;;21.29;70.15
77161;BME280;66135;0.000;0.000;2023-08-06T12:44:42;100699.69;;;21.29;70.02
77161;BME280;66135;0.000;0.000;2023-08-06T12:47:08;100700.72;;;21.27;70.14
77161;BME280;66135;0.000;0.000;2023-08-06T12:49:34;100695.28;;;21.27;70.17
77161;BME280;66135;0.000;0.000;2023-08-06T12:51:59;100700.72;;;21.27;70.13
77161;BME280;66135;0.000;0.000;2023-08-06T12:54:30;100700.72;;;21.27;70.08
77161;BME280;66135;0.000;0.000;2023-08-06T12:57:01;100701.56;;;21.28;70.34
77161;BME280;66135;0.000;0.000;2023-08-06T12:59:26;100702.59;;;21.27;70.15
77161;BME280;66135;0.000;0.000;2023-08-06T13:01:51;100702.44;;;21.29;70.19
77161;BME280;66135;0.000;0.000;2023-08-06T13:04:17;100707.03;;;21.28;70.13
77161;BME280;66135;0.000;0.000;2023-08-06T13:06:42;100705.16;;;21.29;70.02
77161;BME280;66135;0.000;0.000;2023-08-06T13:09:08;100709.53;;;21.30;70.22